Terminal Aerodrome Forecast
Issued by NWS Charleston, WV

Current Version | Previous Version | Graphics & Text | Print | Product List | Glossary On
Versions: 1 2 3 4 5 6 7 8 9 10 11 12 13 14 15 16 17 18 19 20 21 22 23 24 25 26
336
FTUS41 KRLX 200535
TAFBKW
TAF
KBKW 200535Z 2006/2106 16007KT P6SM SCT050 BKN250
     FM201500 20007G15KT P6SM SCT250
     FM202300 17007KT P6SM FEW200=

USA.gov is the U.S. government's official web portal to all federal, state and local government web resources and services.